Aviation Digital Data Service (ADDS)

Output produced by METARs form (1918 UTC 18 June 2019)
found at http://www.aviationweather.gov/metar/data/
 
METAR text: OMSJ 181900Z 18006KT CAVOK 35/24 Q0996
Conditions at: OMSJ (SHARJAH INTL ARP, AE) observed 1900 UTC 18 June 2019
Temperature: 35.0°C (95°F)
Dewpoint: 24.0°C (75°F) [RH = 53%]
Pressure (altimeter): 29.41 inches Hg (996.0 mb)
Winds: from the S (180 degrees) at 7 MPH (6 knots; 3.1 m/s)
Visibility: 6 or more miles (10+ km)
Ceiling: ceiling and visibility are OK
Clouds: unknown
Weather: no significant weather observed at this time

METAR text: OMSJ 181800Z 16005KT 120V180 CAVOK 36/21 Q0997
Conditions at: OMSJ (SHARJAH INTL ARP, AE) observed 1800 UTC 18 June 2019
Temperature: 36.0°C (97°F)
Dewpoint: 21.0°C (70°F) [RH = 42%]
Pressure (altimeter): 29.44 inches Hg (997.0 mb)
Winds: from the SSE (160 degrees) at 6 MPH (5 knots; 2.6 m/s)
Visibility: 6 or more miles (10+ km)
Ceiling: ceiling and visibility are OK
Clouds: unknown
Weather: no significant weather observed at this time

METAR text: OMSJ 181700Z 20003KT CAVOK 36/20 Q0997
Conditions at: OMSJ (SHARJAH INTL ARP, AE) observed 1700 UTC 18 June 2019
Temperature: 36.0°C (97°F)
Dewpoint: 20.0°C (68°F) [RH = 39%]
Pressure (altimeter): 29.44 inches Hg (997.0 mb)
Winds: from the SSW (200 degrees) at 3 MPH (3 knots; 1.5 m/s)
Visibility: 6 or more miles (10+ km)
Ceiling: ceiling and visibility are OK
Clouds: unknown
Weather: no significant weather observed at this time

METAR text: OMSJ 181600Z 24004KT CAVOK 37/20 Q0997
Conditions at: OMSJ (SHARJAH INTL ARP, AE) observed 1600 UTC 18 June 2019
Temperature: 37.0°C (99°F)
Dewpoint: 20.0°C (68°F) [RH = 37%]
Pressure (altimeter): 29.44 inches Hg (997.0 mb)
Winds: from the WSW (240 degrees) at 5 MPH (4 knots; 2.1 m/s)
Visibility: 6 or more miles (10+ km)
Ceiling: ceiling and visibility are OK
Clouds: unknown
Weather: no significant weather observed at this time

METAR text: OMSJ 181500Z 30008KT CAVOK 37/23 Q0996
Conditions at: OMSJ (SHARJAH INTL ARP, AE) observed 1500 UTC 18 June 2019
Temperature: 37.0°C (99°F)
Dewpoint: 23.0°C (73°F) [RH = 45%]
Pressure (altimeter): 29.41 inches Hg (996.0 mb)
Winds: from the WNW (300 degrees) at 9 MPH (8 knots; 4.1 m/s)
Visibility: 6 or more miles (10+ km)
Ceiling: ceiling and visibility are OK
Clouds: unknown
Weather: no significant weather observed at this time

METAR text: OMSJ 181400Z 29010KT CAVOK 37/23 Q0996
Conditions at: OMSJ (SHARJAH INTL ARP, AE) observed 1400 UTC 18 June 2019
Temperature: 37.0°C (99°F)
Dewpoint: 23.0°C (73°F) [RH = 45%]
Pressure (altimeter): 29.41 inches Hg (996.0 mb)
Winds: from the WNW (290 degrees) at 12 MPH (10 knots; 5.1 m/s)
Visibility: 6 or more miles (10+ km)
Ceiling: ceiling and visibility are OK
Clouds: unknown
Weather: no significant weather observed at this time

METAR text: OMSJ 181300Z 30010KT CAVOK 39/25 Q0996
Conditions at: OMSJ (SHARJAH INTL ARP, AE) observed 1300 UTC 18 June 2019
Temperature: 39.0°C (102°F)
Dewpoint: 25.0°C (77°F) [RH = 45%]
Pressure (altimeter): 29.41 inches Hg (996.0 mb)
Winds: from the WNW (300 degrees) at 12 MPH (10 knots; 5.1 m/s)
Visibility: 6 or more miles (10+ km)
Ceiling: ceiling and visibility are OK
Clouds: unknown
Weather: no significant weather observed at this time

METAR text: OMSJ 181200Z 28011KT CAVOK 39/25 Q0996
Conditions at: OMSJ (SHARJAH INTL ARP, AE) observed 1200 UTC 18 June 2019
Temperature: 39.0°C (102°F)
Dewpoint: 25.0°C (77°F) [RH = 45%]
Pressure (altimeter): 29.41 inches Hg (996.0 mb)
Winds: from the W (280 degrees) at 13 MPH (11 knots; 5.7 m/s)
Visibility: 6 or more miles (10+ km)
Ceiling: ceiling and visibility are OK
Clouds: unknown
Weather: no significant weather observed at this time

METAR text: OMSJ 181100Z 30010KT 6000 NSC 39/28 Q0996
Conditions at: OMSJ (SHARJAH INTL ARP, AE) observed 1100 UTC 18 June 2019
Temperature: 39.0°C (102°F)
Dewpoint: 28.0°C (82°F) [RH = 54%]
Pressure (altimeter): 29.41 inches Hg (996.0 mb)
Winds: from the WNW (300 degrees) at 12 MPH (10 knots; 5.1 m/s)
Visibility: 4 miles ( 6 km)
Ceiling: at least 12,000 feet AGL
Clouds: sky clear below 12,000 feet AGL
Weather: no significant weather observed at this time

METAR text: OMSJ 181000Z 31005KT 280V020 6000 NSC 39/27 Q0997
Conditions at: OMSJ (SHARJAH INTL ARP, AE) observed 1000 UTC 18 June 2019
Temperature: 39.0°C (102°F)
Dewpoint: 27.0°C (81°F) [RH = 51%]
Pressure (altimeter): 29.44 inches Hg (997.0 mb)
Winds: from the NW (310 degrees) at 6 MPH (5 knots; 2.6 m/s)
Visibility: 4 miles ( 6 km)
Ceiling: at least 12,000 feet AGL
Clouds: sky clear below 12,000 feet AGL
Weather: no significant weather observed at this time

METAR text: OMSJ 180900Z 29006KT 7000 NSC 38/28 Q0998
Conditions at: OMSJ (SHARJAH INTL ARP, AE) observed 0900 UTC 18 June 2019
Temperature: 38.0°C (100°F)
Dewpoint: 28.0°C (82°F) [RH = 57%]
Pressure (altimeter): 29.47 inches Hg (998.0 mb)
Winds: from the WNW (290 degrees) at 7 MPH (6 knots; 3.1 m/s)
Visibility: 4 miles ( 7 km)
Ceiling: at least 12,000 feet AGL
Clouds: sky clear below 12,000 feet AGL
Weather: no significant weather observed at this time

METAR text: OMSJ 180800Z 33004KT 7000 NSC 37/28 Q0998
Conditions at: OMSJ (SHARJAH INTL ARP, AE) observed 0800 UTC 18 June 2019
Temperature: 37.0°C (99°F)
Dewpoint: 28.0°C (82°F) [RH = 60%]
Pressure (altimeter): 29.47 inches Hg (998.0 mb)
Winds: from the NNW (330 degrees) at 5 MPH (4 knots; 2.1 m/s)
Visibility: 4 miles ( 7 km)
Ceiling: at least 12,000 feet AGL
Clouds: sky clear below 12,000 feet AGL
Weather: no significant weather observed at this time

METAR text: OMSJ 180700Z 19003KT 7000 NSC 38/25 Q0999
Conditions at: OMSJ (SHARJAH INTL ARP, AE) observed 0700 UTC 18 June 2019
Temperature: 38.0°C (100°F)
Dewpoint: 25.0°C (77°F) [RH = 48%]
Pressure (altimeter): 29.50 inches Hg (999.0 mb)
Winds: from the S (190 degrees) at 3 MPH (3 knots; 1.5 m/s)
Visibility: 4 miles ( 7 km)
Ceiling: at least 12,000 feet AGL
Clouds: sky clear below 12,000 feet AGL
Weather: no significant weather observed at this time

METAR text: OMSJ 180600Z VRB02KT 6000 NSC 36/26 Q0999
Conditions at: OMSJ (SHARJAH INTL ARP, AE) observed 0600 UTC 18 June 2019
Temperature: 36.0°C (97°F)
Dewpoint: 26.0°C (79°F) [RH = 57%]
Pressure (altimeter): 29.50 inches Hg (999.0 mb)
Winds: variable direction winds at 2 MPH (2 knots; 1.0 m/s)
Visibility: 4 miles ( 6 km)
Ceiling: at least 12,000 feet AGL
Clouds: sky clear below 12,000 feet AGL
Weather: no significant weather observed at this time

METAR text: OMSJ 180500Z 00000KT 4000 HZ NSC 33/27 Q0998
Conditions at: OMSJ (SHARJAH INTL ARP, AE) observed 0500 UTC 18 June 2019
Temperature: 33.0°C (91°F)
Dewpoint: 27.0°C (81°F) [RH = 71%]
Pressure (altimeter): 29.47 inches Hg (998.0 mb)
Winds: calm
Visibility: 2.49 miles (4.01 km)
Ceiling: at least 12,000 feet AGL
Clouds: sky clear below 12,000 feet AGL
Weather: HZ  (haze)

METAR text: OMSJ 180400Z 14004KT 100V170 3500 HZ FEW015 32/26 Q0999
Conditions at: OMSJ (SHARJAH INTL ARP, AE) observed 0400 UTC 18 June 2019
Temperature: 32.0°C (90°F)
Dewpoint: 26.0°C (79°F) [RH = 71%]
Pressure (altimeter): 29.50 inches Hg (999.0 mb)
Winds: from the SE (140 degrees) at 5 MPH (4 knots; 2.1 m/s)
Visibility: 2.17 miles (3.49 km)
Ceiling: at least 12,000 feet AGL
Clouds: few clouds at 1500 feet AGL
Weather: HZ  (haze)

METAR text: OMSJ 180300Z VRB03KT 4000 HZ FEW015 29/23 Q0998
Conditions at: OMSJ (SHARJAH INTL ARP, AE) observed 0300 UTC 18 June 2019
Temperature: 29.0°C (84°F)
Dewpoint: 23.0°C (73°F) [RH = 70%]
Pressure (altimeter): 29.47 inches Hg (998.0 mb)
Winds: variable direction winds at 3 MPH (3 knots; 1.5 m/s)
Visibility: 2.49 miles (4.01 km)
Ceiling: at least 12,000 feet AGL
Clouds: few clouds at 1500 feet AGL
Weather: HZ  (haze)

METAR text: OMSJ 180244Z 14002KT 4000 HZ NSC 29/23 Q0998
Conditions at: OMSJ (SHARJAH INTL ARP, AE) observed 0244 UTC 18 June 2019
Temperature: 29.0°C (84°F)
Dewpoint: 23.0°C (73°F) [RH = 70%]
Pressure (altimeter): 29.47 inches Hg (998.0 mb)
Winds: from the SE (140 degrees) at 2 MPH (2 knots; 1.0 m/s)
Visibility: 2.49 miles (4.01 km)
Ceiling: at least 12,000 feet AGL
Clouds: sky clear below 12,000 feet AGL
Weather: HZ  (haze)

METAR text: OMSJ 180215Z 09004KT 5000 HZ NSC 28/22 Q0998
Conditions at: OMSJ (SHARJAH INTL ARP, AE) observed 0215 UTC 18 June 2019
Temperature: 28.0°C (82°F)
Dewpoint: 22.0°C (72°F) [RH = 70%]
Pressure (altimeter): 29.47 inches Hg (998.0 mb)
Winds: from the E (90 degrees) at 5 MPH (4 knots; 2.1 m/s)
Visibility: 3 miles ( 5 km)
Ceiling: at least 12,000 feet AGL
Clouds: sky clear below 12,000 feet AGL
Weather: HZ  (haze)

METAR text: OMSJ 180200Z 09004KT 6000 NSC 27/22 Q0998
Conditions at: OMSJ (SHARJAH INTL ARP, AE) observed 0200 UTC 18 June 2019
Temperature: 27.0°C (81°F)
Dewpoint: 22.0°C (72°F) [RH = 74%]
Pressure (altimeter): 29.47 inches Hg (998.0 mb)
Winds: from the E (90 degrees) at 5 MPH (4 knots; 2.1 m/s)
Visibility: 4 miles ( 6 km)
Ceiling: at least 12,000 feet AGL
Clouds: sky clear below 12,000 feet AGL
Weather: no significant weather observed at this time

METAR text: OMSJ 180100Z 12002KT 7000 NSC 30/22 Q0997
Conditions at: OMSJ (SHARJAH INTL ARP, AE) observed 0100 UTC 18 June 2019
Temperature: 30.0°C (86°F)
Dewpoint: 22.0°C (72°F) [RH = 62%]
Pressure (altimeter): 29.44 inches Hg (997.0 mb)
Winds: from the ESE (120 degrees) at 2 MPH (2 knots; 1.0 m/s)
Visibility: 4 miles ( 7 km)
Ceiling: at least 12,000 feet AGL
Clouds: sky clear below 12,000 feet AGL
Weather: no significant weather observed at this time

METAR text: OMSJ 180000Z 24002KT 7000 NSC 29/24 Q0997
Conditions at: OMSJ (SHARJAH INTL ARP, AE) observed 0000 UTC 18 June 2019
Temperature: 29.0°C (84°F)
Dewpoint: 24.0°C (75°F) [RH = 74%]
Pressure (altimeter): 29.44 inches Hg (997.0 mb)
Winds: from the WSW (240 degrees) at 2 MPH (2 knots; 1.0 m/s)
Visibility: 4 miles ( 7 km)
Ceiling: at least 12,000 feet AGL
Clouds: sky clear below 12,000 feet AGL
Weather: no significant weather observed at this time

METAR text: OMSJ 172300Z 22004KT 200V270 7000 NSC 31/24 Q0997
Conditions at: OMSJ (SHARJAH INTL ARP, AE) observed 2300 UTC 17 June 2019
Temperature: 31.0°C (88°F)
Dewpoint: 24.0°C (75°F) [RH = 66%]
Pressure (altimeter): 29.44 inches Hg (997.0 mb)
Winds: from the SW (220 degrees) at 5 MPH (4 knots; 2.1 m/s)
Visibility: 4 miles ( 7 km)
Ceiling: at least 12,000 feet AGL
Clouds: sky clear below 12,000 feet AGL
Weather: no significant weather observed at this time

METAR text: OMSJ 172200Z 11005KT 7000 NSC 29/23 Q0997
Conditions at: OMSJ (SHARJAH INTL ARP, AE) observed 2200 UTC 17 June 2019
Temperature: 29.0°C (84°F)
Dewpoint: 23.0°C (73°F) [RH = 70%]
Pressure (altimeter): 29.44 inches Hg (997.0 mb)
Winds: from the ESE (110 degrees) at 6 MPH (5 knots; 2.6 m/s)
Visibility: 4 miles ( 7 km)
Ceiling: at least 12,000 feet AGL
Clouds: sky clear below 12,000 feet AGL
Weather: no significant weather observed at this time

METAR text: OMSJ 172100Z 12006KT 8000 NSC 30/24 Q0998
Conditions at: OMSJ (SHARJAH INTL ARP, AE) observed 2100 UTC 17 June 2019
Temperature: 30.0°C (86°F)
Dewpoint: 24.0°C (75°F) [RH = 70%]
Pressure (altimeter): 29.47 inches Hg (998.0 mb)
Winds: from the ESE (120 degrees) at 7 MPH (6 knots; 3.1 m/s)
Visibility: 5 miles ( 8 km)
Ceiling: at least 12,000 feet AGL
Clouds: sky clear below 12,000 feet AGL
Weather: no significant weather observed at this time

METAR text: OMSJ 172000Z 08002KT 8000 NSC 31/26 Q0998
Conditions at: OMSJ (SHARJAH INTL ARP, AE) observed 2000 UTC 17 June 2019
Temperature: 31.0°C (88°F)
Dewpoint: 26.0°C (79°F) [RH = 75%]
Pressure (altimeter): 29.47 inches Hg (998.0 mb)
Winds: from the E (80 degrees) at 2 MPH (2 knots; 1.0 m/s)
Visibility: 5 miles ( 8 km)
Ceiling: at least 12,000 feet AGL
Clouds: sky clear below 12,000 feet AGL
Weather: no significant weather observed at this time

METAR text: OMSJ 171900Z 29010KT CAVOK 33/27 Q0999
Conditions at: OMSJ (SHARJAH INTL ARP, AE) observed 1900 UTC 17 June 2019
Temperature: 33.0°C (91°F)
Dewpoint: 27.0°C (81°F) [RH = 71%]
Pressure (altimeter): 29.50 inches Hg (999.0 mb)
Winds: from the WNW (290 degrees) at 12 MPH (10 knots; 5.1 m/s)
Visibility: 6 or more miles (10+ km)
Ceiling: ceiling and visibility are OK
Clouds: unknown
Weather: no significant weather observed at this time

METAR text: OMSJ 171800Z 32003KT CAVOK 35/19 Q0999
Conditions at: OMSJ (SHARJAH INTL ARP, AE) observed 1800 UTC 17 June 2019
Temperature: 35.0°C (95°F)
Dewpoint: 19.0°C (66°F) [RH = 39%]
Pressure (altimeter): 29.50 inches Hg (999.0 mb)
Winds: from the NW (320 degrees) at 3 MPH (3 knots; 1.5 m/s)
Visibility: 6 or more miles (10+ km)
Ceiling: ceiling and visibility are OK
Clouds: unknown
Weather: no significant weather observed at this time

METAR text: OMSJ 171700Z 22004KT CAVOK 36/20 Q0998
Conditions at: OMSJ (SHARJAH INTL ARP, AE) observed 1700 UTC 17 June 2019
Temperature: 36.0°C (97°F)
Dewpoint: 20.0°C (68°F) [RH = 39%]
Pressure (altimeter): 29.47 inches Hg (998.0 mb)
Winds: from the SW (220 degrees) at 5 MPH (4 knots; 2.1 m/s)
Visibility: 6 or more miles (10+ km)
Ceiling: ceiling and visibility are OK
Clouds: unknown
Weather: no significant weather observed at this time

METAR text: OMSJ 171600Z 29001KT CAVOK 36/19 Q0998
Conditions at: OMSJ (SHARJAH INTL ARP, AE) observed 1600 UTC 17 June 2019
Temperature: 36.0°C (97°F)
Dewpoint: 19.0°C (66°F) [RH = 37%]
Pressure (altimeter): 29.47 inches Hg (998.0 mb)
Winds: from the WNW (290 degrees) at 1 MPH (1 knots; 0.5 m/s)
Visibility: 6 or more miles (10+ km)
Ceiling: ceiling and visibility are OK
Clouds: unknown
Weather: no significant weather observed at this time

METAR text: OMSJ 171500Z 33004KT CAVOK 37/18 Q0998
Conditions at: OMSJ (SHARJAH INTL ARP, AE) observed 1500 UTC 17 June 2019
Temperature: 37.0°C (99°F)
Dewpoint: 18.0°C (64°F) [RH = 33%]
Pressure (altimeter): 29.47 inches Hg (998.0 mb)
Winds: from the NNW (330 degrees) at 5 MPH (4 knots; 2.1 m/s)
Visibility: 6 or more miles (10+ km)
Ceiling: ceiling and visibility are OK
Clouds: unknown
Weather: no significant weather observed at this time

METAR text: OMSJ 171400Z 34006KT 310V010 CAVOK 36/26 Q0998
Conditions at: OMSJ (SHARJAH INTL ARP, AE) observed 1400 UTC 17 June 2019
Temperature: 36.0°C (97°F)
Dewpoint: 26.0°C (79°F) [RH = 57%]
Pressure (altimeter): 29.47 inches Hg (998.0 mb)
Winds: from the NNW (340 degrees) at 7 MPH (6 knots; 3.1 m/s)
Visibility: 6 or more miles (10+ km)
Ceiling: ceiling and visibility are OK
Clouds: unknown
Weather: no significant weather observed at this time

METAR text: OMSJ 171300Z 31008KT 340V050 CAVOK 36/25 Q0997
Conditions at: OMSJ (SHARJAH INTL ARP, AE) observed 1300 UTC 17 June 2019
Temperature: 36.0°C (97°F)
Dewpoint: 25.0°C (77°F) [RH = 53%]
Pressure (altimeter): 29.44 inches Hg (997.0 mb)
Winds: from the NW (310 degrees) at 9 MPH (8 knots; 4.1 m/s)
Visibility: 6 or more miles (10+ km)
Ceiling: ceiling and visibility are OK
Clouds: unknown
Weather: no significant weather observed at this time

METAR text: OMSJ 171200Z 32010KT 290V350 CAVOK 38/23 Q0998
Conditions at: OMSJ (SHARJAH INTL ARP, AE) observed 1200 UTC 17 June 2019
Temperature: 38.0°C (100°F)
Dewpoint: 23.0°C (73°F) [RH = 42%]
Pressure (altimeter): 29.47 inches Hg (998.0 mb)
Winds: from the NW (320 degrees) at 12 MPH (10 knots; 5.1 m/s)
Visibility: 6 or more miles (10+ km)
Ceiling: ceiling and visibility are OK
Clouds: unknown
Weather: no significant weather observed at this time

METAR text: OMSJ 171100Z 32009KT 280V340 CAVOK 38/26 Q0998
Conditions at: OMSJ (SHARJAH INTL ARP, AE) observed 1100 UTC 17 June 2019
Temperature: 38.0°C (100°F)
Dewpoint: 26.0°C (79°F) [RH = 51%]
Pressure (altimeter): 29.47 inches Hg (998.0 mb)
Winds: from the NW (320 degrees) at 10 MPH (9 knots; 4.6 m/s)
Visibility: 6 or more miles (10+ km)
Ceiling: ceiling and visibility are OK
Clouds: unknown
Weather: no significant weather observed at this time

METAR text: OMSJ 171000Z 30006KT 260V350 CAVOK 39/24 Q0999
Conditions at: OMSJ (SHARJAH INTL ARP, AE) observed 1000 UTC 17 June 2019
Temperature: 39.0°C (102°F)
Dewpoint: 24.0°C (75°F) [RH = 43%]
Pressure (altimeter): 29.50 inches Hg (999.0 mb)
Winds: from the WNW (300 degrees) at 7 MPH (6 knots; 3.1 m/s)
Visibility: 6 or more miles (10+ km)
Ceiling: ceiling and visibility are OK
Clouds: unknown
Weather: no significant weather observed at this time

METAR text: OMSJ 170900Z 33008KT 290V030 CAVOK 38/21 Q0999
Conditions at: OMSJ (SHARJAH INTL ARP, AE) observed 0900 UTC 17 June 2019
Temperature: 38.0°C (100°F)
Dewpoint: 21.0°C (70°F) [RH = 38%]
Pressure (altimeter): 29.50 inches Hg (999.0 mb)
Winds: from the NNW (330 degrees) at 9 MPH (8 knots; 4.1 m/s)
Visibility: 6 or more miles (10+ km)
Ceiling: ceiling and visibility are OK
Clouds: unknown
Weather: no significant weather observed at this time

METAR text: OMSJ 170800Z 32009KT CAVOK 37/24 Q1000
Conditions at: OMSJ (SHARJAH INTL ARP, AE) observed 0800 UTC 17 June 2019
Temperature: 37.0°C (99°F)
Dewpoint: 24.0°C (75°F) [RH = 48%]
Pressure (altimeter): 29.53 inches Hg (1000.0 mb)
Winds: from the NW (320 degrees) at 10 MPH (9 knots; 4.6 m/s)
Visibility: 6 or more miles (10+ km)
Ceiling: ceiling and visibility are OK
Clouds: unknown
Weather: no significant weather observed at this time

Forecast for: OMSJ (SHARJAH INTL ARP, AE)
Text: TAF OMSJ 181702Z 1818/2000 19007KT 8000 NSC
Forecast period: 1800 UTC 18 June 2019 to 0800 UTC 19 June 2019
Forecast type: FROM: standard forecast or significant change
Winds: from the S (190 degrees) at 8 MPH (7 knots; 3.6 m/s)
Visibility: 5 miles (8 km)
Ceiling: unknown
Clouds: missing
Weather: no significant weather forecast for this period
Text: PROB30 1822/1904 3000 BR BKN005
Forecast period: 2200 UTC 18 June 2019 to 0400 UTC 19 June 2019
Forecast type: PROBABLE: 30 percent likelihood of the following during this time
Visibility: 1.86 miles (2.99 km)
Ceiling: 500 feet AGL
Clouds: broken clouds at 500 feet AGL
Weather: BR  (mist)
Text: BECMG 1908/1910 34015KT
Forecast period: 0800 to 1500 UTC 19 June 2019
Forecast type: BECOMING: Conditions expected to become as follows by 1000 UTC 19 June 2019
Winds: from the NNW (340 degrees) at 17 MPH (15 knots; 7.7 m/s)
Visibility: 5 miles (8 km)
Ceiling: unknown
Clouds: missing
Weather: no significant weather forecast for this period
Text: BECMG 1915/1917 20005KT
Forecast period: 1500 UTC 19 June 2019 to 0000 UTC 20 June 2019
Forecast type: BECOMING: Conditions expected to become as follows by 1700 UTC 19 June 2019
Winds: from the SSW (200 degrees) at 6 MPH (5 knots; 2.6 m/s)
Visibility: 5 miles (8 km)
Ceiling: unknown
Clouds: missing
Weather: no significant weather forecast for this period